KTTD/TTD METAR and TAF weather

Enter ICAO airport designator
Station Type Date Time Source
KTTD METAR 2022/01/22 21:53 UTC NOAA

KTTD 222153Z 27008KT 10SM CLR 08/03 A3044


Station Type Date Time Source
KTTD Decoded METAR 2022/01/22 21:53 UTC NOAA

PORTLAND-TROUTDALE AIRPORT, OR, United States (KTTD) 45-33N 122-25W 14M
Jan 22, 2022 - 04:53 PM EST / 2022.01.22 2153 UTC
Wind: from the W (270 degrees) at 9 MPH (8 KT):0
Visibility: 10 mile(s):0
Sky conditions: clear
Temperature: 46 F (8 C)
Dew Point: 37 F (3 C)
Relative Humidity: 70%
Pressure (altimeter): 30.44 in. Hg (1030 hPa)
ob: KTTD 222153Z 27008KT 10SM CLR 08/03 A3044
cycle: 22

Station Type Date Time Source
KTTD TAF 2022/01/23 12:22 UTC NOAA

TAF KTTD 231120Z 2312/2412 08010G19KT P6SM SCT015 SCT250
FM231800 09015G24KT P6SM SCT250
FM232200 09012KT P6SM SCT250
AMD NOT SKED

Example: see airport list